createdAt,value
2022-08-07T00:01:44.288Z,33.60
2022-08-07T00:04:45.395Z,33.60
2022-08-07T00:07:48.128Z,33.50
2022-08-07T00:11:00.088Z,33.40
2022-08-07T00:14:02.625Z,33.40
2022-08-07T00:17:05.102Z,33.30
2022-08-07T00:20:09.479Z,33.30
2022-08-07T00:23:18.554Z,33.20
2022-08-07T00:26:48.591Z,33.30
2022-08-07T00:29:45.625Z,33.30
2022-08-07T00:32:49.736Z,33.20
2022-08-07T00:35:51.734Z,33.20
2022-08-07T00:38:53.863Z,33.20
2022-08-07T00:42:01.935Z,33.20
2022-08-07T00:45:07.710Z,33.20
2022-08-07T00:48:18.460Z,33.20
2022-08-07T00:51:20.934Z,33.10
2022-08-07T00:54:23.151Z,33.00
2022-08-07T00:57:26.574Z,33.00
2022-08-07T01:00:30.816Z,33.00
2022-08-07T01:03:57.019Z,33.00
2022-08-07T01:06:56.596Z,33.00
2022-08-07T01:10:06.090Z,32.90
2022-08-07T01:13:16.419Z,32.90
2022-08-07T01:16:30.067Z,32.90
2022-08-07T01:19:33.882Z,32.90
2022-08-07T01:22:47.045Z,32.90
2022-08-07T01:26:00.705Z,32.80
2022-08-07T01:29:04.448Z,32.80
2022-08-07T01:32:12.506Z,32.80
2022-08-07T01:35:17.489Z,32.80
2022-08-07T01:38:24.828Z,32.80
2022-08-07T01:41:28.042Z,32.70
2022-08-07T01:44:30.199Z,32.80
2022-08-07T01:48:18.169Z,32.60
2022-08-07T01:51:24.719Z,32.60
2022-08-07T01:54:36.802Z,32.60
2022-08-07T01:58:06.318Z,32.50
2022-08-07T02:01:25.485Z,32.50
2022-08-07T02:05:15.981Z,32.50
2022-08-07T02:08:41.710Z,32.50
2022-08-07T02:12:03.287Z,32.50
2022-08-07T02:15:08.258Z,32.50
2022-08-07T02:18:13.445Z,32.50
2022-08-07T02:21:17.241Z,32.40
2022-08-07T02:24:21.409Z,32.30
2022-08-07T02:27:26.183Z,32.30
2022-08-07T02:30:37.828Z,32.40
2022-08-07T02:33:57.154Z,32.30
2022-08-07T02:37:08.228Z,32.30
2022-08-07T02:40:29.614Z,32.30
2022-08-07T02:43:36.049Z,32.30
2022-08-07T02:46:46.859Z,32.30
2022-08-07T02:49:58.593Z,32.30
2022-08-07T02:53:18.001Z,32.30
2022-08-07T02:56:23.014Z,32.30
2022-08-07T02:59:32.315Z,32.20
2022-08-07T03:02:36.976Z,32.30
2022-08-07T03:05:45.036Z,32.20
2022-08-07T03:08:48.173Z,32.10
2022-08-07T03:11:52.123Z,32.00
2022-08-07T03:15:02.416Z,32.00
2022-08-07T03:18:17.674Z,32.00
2022-08-07T03:21:23.507Z,32.00
2022-08-07T03:24:27.924Z,32.10
2022-08-07T03:27:59.680Z,32.10
2022-08-07T03:31:13.486Z,32.10
2022-08-07T03:34:22.598Z,32.20
2022-08-07T03:37:27.609Z,32.20
2022-08-07T03:40:31.014Z,32.20
2022-08-07T03:43:39.463Z,32.20
2022-08-07T03:47:11.343Z,32.20
2022-08-07T03:50:10.645Z,32.20
2022-08-07T03:53:13.456Z,32.10
2022-08-07T03:56:33.081Z,32.20
2022-08-07T03:59:37.406Z,32.20
2022-08-07T04:02:49.338Z,32.20
2022-08-07T04:05:51.706Z,32.30
2022-08-07T04:09:03.149Z,32.60
2022-08-07T04:12:24.441Z,32.80
2022-08-07T04:15:29.246Z,32.90
2022-08-07T04:18:59.255Z,33.00
2022-08-07T04:21:59.579Z,33.20
2022-08-07T04:25:12.024Z,33.40
2022-08-07T04:28:15.025Z,33.60
2022-08-07T04:31:19.956Z,33.60
2022-08-07T04:34:40.084Z,33.60
2022-08-07T04:38:02.789Z,33.80
2022-08-07T04:41:04.695Z,34.00
2022-08-07T04:44:12.690Z,34.30
2022-08-07T04:47:58.471Z,34.40
2022-08-07T04:51:05.869Z,34.60
2022-08-07T04:54:32.123Z,35.10
2022-08-07T04:58:35.042Z,36.70
2022-08-07T05:01:54.365Z,38.00
2022-08-07T05:05:11.939Z,39.50
2022-08-07T05:09:01.049Z,40.30
2022-08-07T05:12:06.801Z,41.00
2022-08-07T05:15:23.049Z,41.40
2022-08-07T05:18:32.402Z,41.70
2022-08-07T05:21:59.289Z,42.00
2022-08-07T05:25:00.608Z,42.60
2022-08-07T05:28:20.120Z,43.10
2022-08-07T05:31:34.718Z,43.60
2022-08-07T05:34:40.223Z,43.90
2022-08-07T05:37:43.918Z,44.00
2022-08-07T05:40:51.518Z,44.30
2022-08-07T05:44:12.079Z,44.50
2022-08-07T05:47:20.014Z,44.60
2022-08-07T05:50:24.005Z,44.30
2022-08-07T05:54:12.867Z,44.10
2022-08-07T05:56:51.409Z,44.30
2022-08-07T05:59:57.801Z,44.60
2022-08-07T06:03:01.724Z,45.00
2022-08-07T06:06:09.443Z,45.20
2022-08-07T06:09:12.640Z,45.40
2022-08-07T06:12:15.545Z,45.50
2022-08-07T06:15:20.023Z,45.60
2022-08-07T06:18:23.722Z,45.70
2022-08-07T06:22:14.500Z,46.00
2022-08-07T06:24:58.431Z,46.00
2022-08-07T06:28:05.352Z,45.90
2022-08-07T06:31:07.737Z,45.80
2022-08-07T06:34:09.968Z,46.00
2022-08-07T06:37:17.262Z,46.10
2022-08-07T06:40:22.549Z,46.10
2022-08-07T06:43:32.403Z,46.50
2022-08-07T06:46:42.294Z,46.50
2022-08-07T06:49:51.170Z,46.50
2022-08-07T06:52:56.906Z,46.60
2022-08-07T06:56:02.167Z,46.70
2022-08-07T07:00:12.466Z,46.70
2022-08-07T07:02:54.064Z,46.60
2022-08-07T07:06:04.323Z,46.30
2022-08-07T07:09:24.746Z,46.20
2022-08-07T07:12:53.458Z,45.90
2022-08-07T07:16:03.194Z,46.00
2022-08-07T07:19:40.924Z,45.80
2022-08-07T07:22:36.805Z,45.80
2022-08-07T07:26:32.717Z,46.00
2022-08-07T07:29:40.117Z,45.80
2022-08-07T07:32:46.115Z,45.00
2022-08-07T07:36:04.819Z,45.10
2022-08-07T07:39:10.002Z,45.10
2022-08-07T07:42:17.620Z,44.70
2022-08-07T07:46:40.216Z,44.60
2022-08-07T07:48:50.893Z,43.90
2022-08-07T07:52:03.671Z,42.90
2022-08-07T07:55:09.096Z,42.60
2022-08-07T07:58:14.220Z,42.80
2022-08-07T08:02:03.338Z,42.60
2022-08-07T08:04:45.695Z,42.60
2022-08-07T08:08:00.848Z,42.70
2022-08-07T08:11:08.452Z,43.10
2022-08-07T08:14:11.088Z,43.60
2022-08-07T08:17:58.293Z,44.20
2022-08-07T08:20:38.825Z,44.80
2022-08-07T08:24:03.994Z,45.10
2022-08-07T08:27:12.843Z,45.30
2022-08-07T08:30:19.619Z,45.50
2022-08-07T08:33:24.550Z,45.50
2022-08-07T08:36:33.955Z,45.50
2022-08-07T08:39:39.581Z,45.50
2022-08-07T08:43:20.239Z,44.90
2022-08-07T08:46:38.259Z,44.20
2022-08-07T08:50:02.694Z,43.80
2022-08-07T08:53:40.726Z,43.30
2022-08-07T08:56:49.803Z,42.70
2022-08-07T09:00:01.521Z,42.50
2022-08-07T09:03:18.058Z,42.10
2022-08-07T09:06:40.530Z,41.70
2022-08-07T09:10:04.398Z,41.40
2022-08-07T09:13:36.755Z,41.00
2022-08-07T09:16:49.744Z,40.70
2022-08-07T09:20:35.022Z,40.60
2022-08-07T09:24:32.926Z,39.90
2022-08-07T09:27:38.407Z,39.40
2022-08-07T09:31:48.616Z,38.80
2022-08-07T09:36:05.426Z,39.00
2022-08-07T09:38:53.822Z,39.60
2022-08-07T09:42:03.210Z,39.70
2022-08-07T09:47:42.521Z,38.90
2022-08-07T09:50:02.316Z,38.70
2022-08-07T09:52:53.770Z,38.20
2022-08-07T09:56:19.699Z,38.40
2022-08-07T10:00:04.013Z,37.70
2022-08-07T10:04:06.678Z,36.90
2022-08-07T10:07:53.586Z,37.00
2022-08-07T10:12:03.154Z,36.80
2022-08-07T10:15:23.723Z,37.80
2022-08-07T10:18:44.586Z,37.30
2022-08-07T10:22:16.133Z,37.80
2022-08-07T10:25:42.460Z,37.80
2022-08-07T10:29:06.870Z,38.30
2022-08-07T10:32:36.912Z,38.20
2022-08-07T10:36:11.121Z,38.50
2022-08-07T10:40:03.421Z,39.40
2022-08-07T10:43:35.091Z,39.20
2022-08-07T10:47:01.797Z,39.10
2022-08-07T10:50:49.986Z,39.40
2022-08-07T10:54:15.199Z,38.60
2022-08-07T10:57:38.764Z,37.70
2022-08-07T11:00:56.639Z,38.10
2022-08-07T11:04:32.137Z,38.40
2022-08-07T11:08:00.450Z,38.60
2022-08-07T11:11:15.431Z,38.90
2022-08-07T11:14:45.145Z,39.30
2022-08-07T11:18:03.706Z,39.70
2022-08-07T11:21:17.781Z,40.00
2022-08-07T11:24:33.477Z,39.90
2022-08-07T11:28:06.311Z,39.90
2022-08-07T11:31:30.461Z,38.90
2022-08-07T11:34:48.613Z,38.60
2022-08-07T11:38:17.186Z,37.80
2022-08-07T11:42:00.251Z,38.20
2022-08-07T11:45:09.229Z,38.70
2022-08-07T11:48:29.797Z,39.00
2022-08-07T11:51:50.864Z,39.30
2022-08-07T11:56:09.620Z,39.50
2022-08-07T11:59:02.784Z,39.70
2022-08-07T12:02:52.528Z,39.80
2022-08-07T12:06:37.791Z,40.40
2022-08-07T12:09:49.563Z,40.40
2022-08-07T12:13:02.988Z,40.40
2022-08-07T12:16:29.942Z,40.30
2022-08-07T12:20:06.927Z,39.50
2022-08-07T12:24:05.303Z,38.50
2022-08-07T12:27:16.317Z,37.90
2022-08-07T12:30:23.396Z,37.80
2022-08-07T12:33:30.952Z,37.80
2022-08-07T12:36:53.413Z,38.20
2022-08-07T12:39:58.637Z,38.10
2022-08-07T12:43:09.950Z,38.70
2022-08-07T12:46:35.423Z,38.90
2022-08-07T12:50:00.441Z,39.10
2022-08-07T12:53:27.594Z,39.40
2022-08-07T12:56:38.070Z,39.70
2022-08-07T12:59:55.375Z,40.10
2022-08-07T13:03:56.140Z,40.50
2022-08-07T13:08:12.229Z,40.90
2022-08-07T13:10:56.985Z,41.50
2022-08-07T13:14:50.851Z,41.80
2022-08-07T13:18:08.930Z,42.00
2022-08-07T13:21:50.393Z,42.10
2022-08-07T13:25:00.567Z,41.60
2022-08-07T13:28:14.325Z,41.50
2022-08-07T13:31:32.144Z,40.50
2022-08-07T13:35:08.920Z,39.90
2022-08-07T13:38:24.306Z,39.50
2022-08-07T13:41:41.303Z,40.20
2022-08-07T13:44:44.933Z,40.20
2022-08-07T13:48:10.411Z,40.20
2022-08-07T13:51:27.704Z,39.50
2022-08-07T13:54:41.114Z,39.20
2022-08-07T13:58:28.122Z,39.00
2022-08-07T14:01:51.363Z,39.10
2022-08-07T14:05:04.669Z,39.30
2022-08-07T14:08:08.905Z,39.30
2022-08-07T14:11:17.452Z,39.40
2022-08-07T14:14:23.656Z,39.20
2022-08-07T14:18:13.127Z,39.30
2022-08-07T14:22:02.345Z,39.60
2022-08-07T14:24:42.661Z,39.80
2022-08-07T14:28:12.944Z,40.10
2022-08-07T14:31:15.213Z,40.10
2022-08-07T14:34:27.222Z,40.30
2022-08-07T14:37:39.102Z,40.30
2022-08-07T14:40:49.322Z,40.40
2022-08-07T14:47:18.511Z,40.40
2022-08-07T14:50:23.719Z,40.50
2022-08-07T14:54:08.981Z,40.30
2022-08-07T14:56:57.076Z,39.80
2022-08-07T15:00:05.322Z,39.90
2022-08-07T15:03:19.519Z,40.10
2022-08-07T15:06:25.324Z,40.10
2022-08-07T15:09:58.312Z,40.20
2022-08-07T15:12:55.007Z,40.50
2022-08-07T15:16:04.158Z,40.60
2022-08-07T15:20:31.410Z,40.50
2022-08-07T15:22:53.922Z,40.60
2022-08-07T15:25:57.575Z,40.90
2022-08-07T15:30:04.603Z,40.50
2022-08-07T15:32:38.887Z,40.10
2022-08-07T15:36:01.260Z,38.50
2022-08-07T15:39:10.357Z,38.90
2022-08-07T15:42:46.726Z,39.10
2022-08-07T15:45:58.288Z,39.30
2022-08-07T15:49:12.530Z,39.50
2022-08-07T15:52:30.663Z,39.00
2022-08-07T15:55:54.048Z,39.10
2022-08-07T15:59:00.789Z,38.80
2022-08-07T16:02:04.691Z,39.20
2022-08-07T16:05:15.414Z,39.40
2022-08-07T16:08:32.607Z,39.50
2022-08-07T16:11:42.873Z,39.50
2022-08-07T16:14:59.306Z,39.50
2022-08-07T16:18:13.894Z,39.60
2022-08-07T16:22:05.866Z,39.70
2022-08-07T16:25:23.401Z,39.70
2022-08-07T16:30:06.258Z,39.70
2022-08-07T16:34:03.183Z,39.90
2022-08-07T16:38:06.538Z,39.80
2022-08-07T16:41:11.731Z,39.80
2022-08-07T16:44:47.154Z,39.80
2022-08-07T16:48:28.457Z,39.80
2022-08-07T16:51:54.273Z,39.70
2022-08-07T16:55:47.151Z,39.70
2022-08-07T16:59:14.244Z,39.70
2022-08-07T17:03:04.908Z,39.70
2022-08-07T17:06:28.683Z,39.70
2022-08-07T17:10:05.231Z,39.70
2022-08-07T17:13:22.588Z,39.40
2022-08-07T17:17:12.144Z,39.40
2022-08-07T17:20:20.849Z,39.30
2022-08-07T17:23:32.596Z,39.40
2022-08-07T17:26:51.403Z,39.50
2022-08-07T17:30:15.687Z,39.40
2022-08-07T17:34:10.122Z,39.30
2022-08-07T17:37:14.550Z,39.30
2022-08-07T17:40:33.470Z,39.30
2022-08-07T17:44:13.723Z,39.30
2022-08-07T17:47:42.043Z,39.30
2022-08-07T17:51:02.274Z,39.20
2022-08-07T17:54:13.119Z,39.20
2022-08-07T17:57:59.330Z,39.20
2022-08-07T18:01:21.254Z,39.20
2022-08-07T18:04:34.781Z,39.00
2022-08-07T18:07:43.935Z,39.00
2022-08-07T18:12:07.416Z,38.90
2022-08-07T18:14:28.639Z,38.80
2022-08-07T18:18:33.059Z,38.70
2022-08-07T18:22:02.389Z,38.40
2022-08-07T18:25:24.275Z,38.40
2022-08-07T18:30:06.736Z,38.30
2022-08-07T18:33:15.977Z,38.20
2022-08-07T18:36:36.789Z,38.00
2022-08-07T18:40:08.615Z,37.90
2022-08-07T18:43:09.180Z,37.70
2022-08-07T18:46:43.218Z,37.50
2022-08-07T18:50:36.680Z,37.50
2022-08-07T18:54:05.667Z,37.40
2022-08-07T18:57:36.918Z,37.20
2022-08-07T19:01:01.789Z,37.20
2022-08-07T19:04:16.442Z,37.20
2022-08-07T19:07:34.782Z,37.10
2022-08-07T19:10:51.380Z,37.00
2022-08-07T19:14:19.876Z,37.00
2022-08-07T19:18:01.140Z,37.00
2022-08-07T19:21:47.802Z,37.00
2022-08-07T19:24:56.453Z,37.00
2022-08-07T19:28:29.454Z,37.00
2022-08-07T19:32:02.475Z,37.00
2022-08-07T19:35:03.276Z,37.00
2022-08-07T19:38:16.155Z,37.00
2022-08-07T19:41:39.239Z,36.90
2022-08-07T19:44:48.464Z,36.80
2022-08-07T19:47:56.135Z,36.80
2022-08-07T19:51:04.583Z,36.70
2022-08-07T19:54:29.896Z,36.60
2022-08-07T19:58:01.397Z,36.60
2022-08-07T20:01:02.601Z,36.60
2022-08-07T20:04:32.037Z,36.40
2022-08-07T20:07:47.219Z,36.40
2022-08-07T20:11:34.177Z,36.30
2022-08-07T20:14:53.684Z,36.30
2022-08-07T20:18:04.423Z,36.40
2022-08-07T20:21:21.005Z,36.40
2022-08-07T20:24:31.436Z,36.40
2022-08-07T20:27:48.114Z,36.40
2022-08-07T20:30:58.248Z,36.30
2022-08-07T20:34:01.629Z,36.30
2022-08-07T20:37:05.863Z,36.30
2022-08-07T20:40:33.251Z,36.30
2022-08-07T20:43:35.902Z,36.20
2022-08-07T20:47:05.658Z,36.20
2022-08-07T20:50:12.205Z,36.20
2022-08-07T20:53:15.650Z,36.20
2022-08-07T20:56:26.013Z,36.10
2022-08-07T21:00:08.290Z,36.00
2022-08-07T21:02:58.061Z,35.90
2022-08-07T21:06:21.522Z,35.80
2022-08-07T21:09:51.982Z,35.80
2022-08-07T21:12:57.846Z,35.70
2022-08-07T21:16:03.198Z,35.70
2022-08-07T21:19:10.149Z,35.60
2022-08-07T21:22:19.335Z,35.60
2022-08-07T21:25:38.985Z,35.50
2022-08-07T21:28:51.799Z,35.50
2022-08-07T21:32:42.970Z,35.40
2022-08-07T21:36:11.850Z,35.40
2022-08-07T21:39:47.952Z,35.30
2022-08-07T21:43:13.907Z,35.20
2022-08-07T21:46:24.348Z,35.20
2022-08-07T21:49:40.619Z,35.20
2022-08-07T21:53:17.637Z,35.20
2022-08-07T21:56:40.352Z,35.10
2022-08-07T22:00:06.139Z,35.00
2022-08-07T22:03:30.892Z,35.00
2022-08-07T22:06:45.205Z,35.00
2022-08-07T22:09:56.297Z,34.90
2022-08-07T22:13:02.504Z,34.90
2022-08-07T22:16:45.743Z,34.90
2022-08-07T22:19:45.884Z,34.90
2022-08-07T22:23:03.300Z,34.80
2022-08-07T22:26:11.624Z,34.80
2022-08-07T22:29:48.550Z,34.80
2022-08-07T22:33:18.639Z,34.70
2022-08-07T22:37:05.787Z,34.60
2022-08-07T22:40:34.343Z,34.50
2022-08-07T22:43:42.470Z,34.50
2022-08-07T22:47:17.041Z,34.50
2022-08-07T22:50:37.671Z,34.40
2022-08-07T22:54:07.356Z,34.40
2022-08-07T22:57:42.015Z,34.40
2022-08-07T23:01:10.883Z,34.40
2022-08-07T23:04:29.993Z,34.40
2022-08-07T23:08:24.509Z,34.40
2022-08-07T23:12:00.706Z,34.30
2022-08-07T23:16:04.516Z,34.40
2022-08-07T23:19:13.977Z,34.30
2022-08-07T23:22:52.559Z,34.30
2022-08-07T23:26:10.515Z,34.20
2022-08-07T23:29:43.632Z,34.20
2022-08-07T23:34:33.726Z,34.10
2022-08-07T23:37:29.393Z,34.10
2022-08-07T23:40:46.999Z,34.10
2022-08-07T23:44:16.789Z,34.10
2022-08-07T23:47:47.971Z,34.10
2022-08-07T23:53:01.582Z,34.00
2022-08-07T23:55:52.141Z,33.90
2022-08-07T23:59:10.567Z,33.90
